Little Valley, California
Current Conditions -  °F | °C
As of 12:55 PM on Friday 24 Oct 2014 (Local Time) from KAAT Reporting Station
Clear Clear  
Wind Chill: 20°   Ceiling: Unl
Heat Index: 20°   Visibility: 10mi
Dew Point:   Wind: 17mph
Humidity: 32%   Direction: 200°SSW
Pressure: 29.98"   Gusts: 24mph
Location:  40.9954°N, 121.135°W
Report Text: KAAT 241955Z AUTO 20015G21KT 10SM CLR 20/03 A2998 RMK AO2 SLP127 T02000028
Loading
Personal Weather Stations






























Interactive Weather Map
Tropical Storm Tracking
New forecast layout! Learn more

10-Day Weather Forecast

Advertisements
Track Severe Weather on mobile